Time;durP1;ratioP1;P1;durP2;ratioP2;P2;SDS_P1;SDS_P2;PMS_P1;PMS_P2;Temp;Humidity;BMP_temperature;BMP_pressure;BME280_temperature;BME280_humidity;BME280_pressure;Samples;Min_cycle;Max_cycle;Signal;HPM_P1;HPM_P2
2022/09/19 00:01:43;;;;;;;8.60;1.23;;;11.60;99.90;;;;;;5032979;28;20096;-74
2022/09/19 00:04:18;;;;;;;7.43;0.90;;;11.60;99.90;;;;;;5032570;28;20037;-74
2022/09/19 00:06:45;;;;;;;8.85;1.38;;;11.60;99.90;;;;;;5032968;28;20506;-74
2022/09/19 00:09:14;;;;;;;6.82;0.77;;;11.70;99.90;;;;;;5033249;28;20031;-74
2022/09/19 00:11:42;;;;;;;6.68;1.20;;;11.80;99.90;;;;;;5032388;28;20508;-74
2022/09/19 00:14:09;;;;;;;7.15;1.00;;;11.80;99.90;;;;;;5032391;28;20168;-74
2022/09/19 00:16:38;;;;;;;4.15;1.25;;;11.80;99.90;;;;;;5032264;28;20029;-74
2022/09/19 00:19:05;;;;;;;4.50;1.08;;;11.80;99.90;;;;;;5032224;28;20092;-74
2022/09/19 00:21:34;;;;;;;7.07;0.70;;;11.80;99.90;;;;;;5032122;28;20393;-74
2022/09/19 00:26:47;;;;;;;10.75;1.83;;;11.50;99.90;;;;;;5032689;28;20083;-74
2022/09/19 00:29:15;;;;;;;8.68;0.88;;;11.50;99.90;;;;;;5031963;28;20028;-74
2022/09/19 00:31:43;;;;;;;5.38;1.10;;;11.40;99.90;;;;;;5032035;28;20029;-74
2022/09/19 00:34:09;;;;;;;13.75;1.63;;;11.40;99.90;;;;;;5032144;28;20061;-74
2022/09/19 00:36:36;;;;;;;7.38;1.00;;;11.30;99.90;;;;;;5022621;28;20144;-74
2022/09/19 00:39:03;;;;;;;10.48;0.95;;;11.30;99.90;;;;;;5031578;28;20104;-74
2022/09/19 00:41:30;;;;;;;9.40;1.48;;;11.40;99.90;;;;;;5031909;28;20364;-74
2022/09/19 00:43:58;;;;;;;15.45;1.42;;;11.40;99.90;;;;;;5031500;28;20032;-74
2022/09/19 00:46:26;;;;;;;7.75;1.48;;;11.50;99.90;;;;;;5031704;28;20337;-74
2022/09/19 00:49:19;;;;;;;7.18;1.10;;;11.50;99.90;;;;;;5031891;28;20119;-74
2022/09/19 00:51:53;;;;;;;7.28;0.80;;;11.60;99.90;;;;;;5011344;28;20069;-74
2022/09/19 00:54:34;;;;;;;8.00;1.38;;;11.50;99.90;;;;;;5011901;28;20094;-74
2022/09/19 00:57:02;;;;;;;6.07;0.98;;;11.40;99.90;;;;;;5011713;28;20052;-74
2022/09/19 00:59:34;;;;;;;4.57;0.65;;;11.60;99.90;;;;;;5012009;28;20076;-74
2022/09/19 01:02:03;;;;;;;5.55;1.08;;;11.70;99.90;;;;;;5011846;28;20075;-74
2022/09/19 01:04:35;;;;;;;7.50;0.93;;;11.70;99.90;;;;;;5012079;28;20385;-74
2022/09/19 01:07:20;;;;;;;7.00;0.60;;;11.70;99.90;;;;;;5012037;28;20057;-74
2022/09/19 01:10:04;;;;;;;6.40;0.95;;;11.80;99.90;;;;;;5011703;28;20113;-74
2022/09/19 01:13:09;;;;;;;4.05;0.68;;;11.70;99.90;;;;;;5011704;28;20061;-74
2022/09/19 01:16:01;;;;;;;7.97;1.30;;;11.80;99.90;;;;;;5011062;28;20092;-74
2022/09/19 01:18:51;;;;;;;11.07;1.35;;;12.00;99.90;;;;;;5011709;28;20510;-74
2022/09/19 01:21:40;;;;;;;6.45;0.95;;;12.10;99.90;;;;;;5011836;28;20052;-74
2022/09/19 01:24:40;;;;;;;10.20;1.08;;;12.30;99.90;;;;;;5011445;28;20032;-75
2022/09/19 01:27:38;;;;;;;9.70;1.33;;;12.30;99.90;;;;;;5011546;28;20029;-74
2022/09/19 01:30:09;;;;;;;6.10;1.35;;;12.20;99.90;;;;;;5011791;28;20026;-74
2022/09/19 01:32:42;;;;;;;8.35;1.55;;;12.00;99.90;;;;;;5011675;28;20033;-74
2022/09/19 01:35:11;;;;;;;5.90;0.93;;;11.70;99.90;;;;;;5011457;28;20025;-74
2022/09/19 01:37:43;;;;;;;6.90;0.80;;;11.60;99.90;;;;;;5011487;28;20026;-74
2022/09/19 01:40:11;;;;;;;8.48;1.33;;;11.50;99.90;;;;;;5011609;28;20365;-74
2022/09/19 01:42:54;;;;;;;8.18;1.00;;;11.50;99.90;;;;;;5011351;28;20014;-74
2022/09/19 01:45:26;;;;;;;7.13;1.30;;;11.40;99.90;;;;;;5011734;28;20352;-74
2022/09/19 01:48:05;;;;;;;7.95;1.00;;;11.40;99.90;;;;;;5011689;28;20415;-74
2022/09/19 01:50:45;;;;;;;9.00;1.00;;;11.40;99.90;;;;;;5011610;28;20021;-74
2022/09/19 01:53:31;;;;;;;8.40;1.50;;;11.30;99.90;;;;;;5011760;28;20041;-74
2022/09/19 01:56:21;;;;;;;9.52;1.35;;;11.20;99.90;;;;;;5016566;28;21508;-74
2022/09/19 01:59:09;;;;;;;10.80;2.10;;;11.20;99.90;;;;;;5051156;28;20025;-74
2022/09/19 02:01:49;;;;;;;4.82;0.82;;;11.30;99.90;;;;;;5042337;28;20033;-74
2022/09/19 02:04:52;;;;;;;12.32;0.90;;;11.20;99.90;;;;;;5031367;28;20387;-74
2022/09/19 02:07:27;;;;;;;11.02;1.60;;;11.20;99.90;;;;;;5030212;28;20049;-74
2022/09/19 02:10:02;;;;;;;12.23;0.80;;;11.10;99.90;;;;;;5030836;28;20029;-74
2022/09/19 02:12:31;;;;;;;8.32;1.48;;;11.00;99.90;;;;;;5031136;28;20022;-74
2022/09/19 02:15:00;;;;;;;6.70;1.77;;;10.90;99.90;;;;;;5030959;28;20112;-74
2022/09/19 02:17:50;;;;;;;7.45;1.33;;;10.90;99.90;;;;;;5030595;28;20042;-74
2022/09/19 02:20:25;;;;;;;6.60;1.17;;;10.80;99.90;;;;;;5031208;28;20032;-74
2022/09/19 02:23:03;;;;;;;6.93;0.98;;;10.90;99.90;;;;;;5030802;28;20065;-74
2022/09/19 02:25:32;;;;;;;6.15;1.20;;;10.70;99.90;;;;;;5031402;28;20030;-74
2022/09/19 02:28:25;;;;;;;11.98;0.90;;;10.80;99.90;;;;;;5034426;28;20067;-74
2022/09/19 02:30:51;;;;;;;5.55;0.98;;;10.80;99.90;;;;;;5033887;28;20120;-74
2022/09/19 02:33:17;;;;;;;12.00;2.20;;;10.70;99.90;;;;;;5034062;28;20156;-74
2022/09/19 02:35:59;;;;;;;6.43;0.65;;;10.90;99.90;;;;;;5033849;28;20115;-74
2022/09/19 02:38:51;;;;;;;7.35;0.77;;;10.90;99.90;;;;;;5034377;28;20030;-74
2022/09/19 02:41:27;;;;;;;7.28;0.65;;;11.10;99.90;;;;;;5014486;28;20030;-74
2022/09/19 02:44:08;;;;;;;8.07;1.05;;;11.10;99.90;;;;;;5014430;28;20034;-74
2022/09/19 02:47:13;;;;;;;4.82;0.75;;;11.10;99.90;;;;;;5053655;28;20471;-74
2022/09/19 02:49:49;;;;;;;9.50;1.02;;;11.20;99.90;;;;;;5053558;28;20479;-74
2022/09/19 02:52:21;;;;;;;8.15;1.10;;;11.10;99.90;;;;;;5053663;28;20039;-74
2022/09/19 02:54:53;;;;;;;8.77;1.00;;;11.10;99.90;;;;;;5053811;28;20582;-74
2022/09/19 02:57:22;;;;;;;5.93;0.70;;;11.10;99.90;;;;;;5053388;28;20032;-74
2022/09/19 02:59:51;;;;;;;7.80;1.13;;;11.00;99.90;;;;;;5013960;28;20056;-74
2022/09/19 03:02:25;;;;;;;6.47;1.10;;;11.00;99.90;;;;;;5014156;28;20017;-74
2022/09/19 03:05:01;;;;;;;4.68;0.60;;;10.90;99.90;;;;;;5013951;28;20687;-74
2022/09/19 03:07:31;;;;;;;5.28;1.73;;;10.80;99.90;;;;;;5014206;28;20026;-74
2022/09/19 03:10:14;;;;;;;;;;;10.80;99.90;;;;;;5014294;28;20040;-74
2022/09/19 03:12:53;;;;;;;6.65;1.05;;;10.90;99.90;;;;;;5013647;28;19932;-74
2022/09/19 03:15:30;;;;;;;6.85;0.90;;;10.80;99.90;;;;;;5013832;28;20014;-74
2022/09/19 03:17:57;;;;;;;4.65;0.65;;;10.80;99.90;;;;;;5013550;28;20712;-74
2022/09/19 03:20:24;;;;;;;6.47;0.60;;;10.90;99.90;;;;;;5013573;28;20014;-74
2022/09/19 03:22:50;;;;;;;8.23;1.17;;;11.00;99.90;;;;;;5013855;28;20026;-74
2022/09/19 03:25:15;;;;;;;4.85;0.80;;;10.90;99.90;;;;;;5013555;28;20448;-74
2022/09/19 03:27:41;;;;;;;4.47;0.70;;;10.90;99.90;;;;;;5013432;28;20088;-74
2022/09/19 03:30:10;;;;;;;7.72;0.80;;;10.80;99.90;;;;;;5013457;28;20068;-74
2022/09/19 03:32:37;;;;;;;7.03;1.08;;;10.80;99.90;;;;;;5013330;28;20022;-74
2022/09/19 03:35:04;;;;;;;5.30;0.82;;;10.80;99.90;;;;;;5013287;28;20511;-74
2022/09/19 03:37:32;;;;;;;7.15;1.48;;;10.70;99.90;;;;;;5012055;28;20062;-74
2022/09/19 03:39:58;;;;;;;3.47;0.60;;;10.60;99.90;;;;;;5013416;28;20053;-74
2022/09/19 03:42:25;;;;;;;5.30;1.05;;;10.70;99.90;;;;;;5013260;28;20108;-74
2022/09/19 03:44:51;;;;;;;11.05;1.70;;;10.70;99.90;;;;;;5013249;28;20434;-74
2022/09/19 03:47:18;;;;;;;7.28;1.35;;;10.80;99.90;;;;;;5013125;28;20021;-74
2022/09/19 03:49:44;;;;;;;6.43;0.95;;;11.10;99.90;;;;;;5013109;28;20151;-74
2022/09/19 03:52:10;;;;;;;6.68;0.98;;;11.20;99.90;;;;;;5012941;28;20472;-74
2022/09/19 03:54:36;;;;;;;7.93;1.00;;;11.30;99.90;;;;;;5012762;28;20023;-74
2022/09/19 03:57:01;;;;;;;4.97;0.70;;;11.20;99.90;;;;;;5012878;28;20040;-74
2022/09/19 03:59:27;;;;;;;3.45;0.60;;;11.00;99.90;;;;;;5012775;28;20018;-74
2022/09/19 04:01:54;;;;;;;9.82;1.42;;;10.90;99.90;;;;;;5012950;28;20014;-74
2022/09/19 04:04:21;;;;;;;9.02;1.33;;;10.80;99.90;;;;;;5013159;28;20022;-74
2022/09/19 04:06:47;;;;;;;7.38;0.98;;;10.80;99.90;;;;;;5012884;28;20018;-74
2022/09/19 04:09:13;;;;;;;6.15;1.55;;;10.70;99.90;;;;;;5012751;28;20049;-74
2022/09/19 04:11:41;;;;;;;7.50;0.95;;;10.70;99.90;;;;;;5012662;28;20393;-74
2022/09/19 04:14:07;;;;;;;6.75;0.85;;;10.70;99.90;;;;;;5012950;28;20404;-74
2022/09/19 04:16:33;;;;;;;5.05;0.82;;;10.70;99.90;;;;;;5012761;28;20457;-74
2022/09/19 04:18:58;;;;;;;4.50;0.90;;;10.70;99.90;;;;;;5012890;28;20030;-74
2022/09/19 04:21:25;;;;;;;7.43;1.00;;;10.60;99.90;;;;;;5012273;28;20026;-74
2022/09/19 04:23:50;;;;;;;8.02;1.00;;;10.50;99.90;;;;;;5012780;28;20109;-74
2022/09/19 04:26:16;;;;;;;10.05;1.27;;;10.50;99.90;;;;;;5012566;28;20627;-74
2022/09/19 04:28:43;;;;;;;9.05;1.08;;;10.50;99.90;;;;;;5012433;28;20030;-74
2022/09/19 04:31:12;;;;;;;9.90;1.08;;;10.40;99.90;;;;;;5012605;28;20018;-74
2022/09/19 04:33:38;;;;;;;6.30;0.80;;;10.50;99.90;;;;;;5012370;28;20113;-74
2022/09/19 04:36:05;;;;;;;6.15;0.90;;;10.50;99.90;;;;;;5011806;28;20042;-74
2022/09/19 04:38:33;;;;;;;3.97;0.80;;;10.50;99.90;;;;;;5030064;28;20048;-74
2022/09/19 04:40:59;;;;;;;5.85;0.60;;;10.60;99.90;;;;;;5031841;28;20460;-74
2022/09/19 04:43:29;;;;;;;7.35;0.65;;;10.70;99.90;;;;;;5031873;28;20240;-74
2022/09/19 04:45:55;;;;;;;2.60;0.60;;;10.80;99.90;;;;;;5031984;28;20036;-74
2022/09/19 04:48:22;;;;;;;4.10;1.38;;;10.90;99.90;;;;;;5031822;28;20018;-74
2022/09/19 04:50:50;;;;;;;6.28;0.70;;;11.00;99.90;;;;;;5030889;28;20119;-74
2022/09/19 04:53:23;;;;;;;5.57;0.80;;;10.90;99.90;;;;;;5031682;28;20014;-74
2022/09/19 04:55:50;;;;;;;10.05;1.27;;;10.90;99.90;;;;;;5031522;28;20037;-74
2022/09/19 04:58:16;;;;;;;4.55;0.60;;;10.80;99.90;;;;;;5031467;28;20057;-74
2022/09/19 05:00:45;;;;;;;13.55;2.35;;;10.80;99.90;;;;;;5031325;28;20107;-74
2022/09/19 05:03:15;;;;;;;15.73;1.60;;;10.90;99.90;;;;;;5032010;28;20032;-74
2022/09/19 05:05:44;;;;;;;6.95;0.70;;;10.80;99.90;;;;;;5031500;28;20542;-74
2022/09/19 05:08:12;;;;;;;4.80;0.70;;;10.80;99.90;;;;;;5031454;28;20025;-74
2022/09/19 05:10:38;;;;;;;9.75;0.88;;;10.80;99.90;;;;;;5031285;28;21598;-74
2022/09/19 05:13:03;;;;;;;6.15;1.20;;;10.80;99.90;;;;;;5031469;28;20648;-74
2022/09/19 05:15:29;;;;;;;5.90;0.60;;;10.70;99.90;;;;;;5031380;28;20022;-74
2022/09/19 05:17:55;;;;;;;8.90;0.90;;;10.70;99.90;;;;;;5030018;28;20060;-74
2022/09/19 05:20:25;;;;;;;3.75;0.70;;;10.80;99.90;;;;;;5031260;28;20038;-74
2022/09/19 05:22:56;;;;;;;4.00;0.60;;;10.70;99.90;;;;;;5031436;28;20363;-74
2022/09/19 05:25:22;;;;;;;;;;;10.80;99.90;;;;;;5032073;28;20620;-74
2022/09/19 05:27:47;;;;;;;2.67;0.47;;;10.80;99.90;;;;;;5031460;28;20535;-74
2022/09/19 05:30:13;;;;;;;3.58;0.57;;;10.90;99.90;;;;;;5031162;28;20087;-74
2022/09/19 05:32:44;;;;;;;10.25;0.68;;;11.00;99.90;;;;;;5031782;28;20014;-74
2022/09/19 05:35:11;;;;;;;7.20;0.60;;;11.10;99.90;;;;;;5031006;28;20479;-74
2022/09/19 05:37:40;;;;;;;5.22;0.43;;;11.00;99.90;;;;;;5031342;28;20367;-74
2022/09/19 05:40:06;;;;;;;6.47;0.68;;;11.00;99.90;;;;;;5031474;28;20025;-74
2022/09/19 05:42:31;;;;;;;10.15;1.27;;;11.10;99.90;;;;;;5031220;28;20339;-74
2022/09/19 05:44:57;;;;;;;6.07;0.65;;;11.00;99.90;;;;;;5031012;28;20533;-74
2022/09/19 05:47:23;;;;;;;4.88;0.57;;;11.00;99.90;;;;;;5030998;28;20025;-74
2022/09/19 05:49:48;;;;;;;6.38;0.52;;;10.90;99.90;;;;;;5031204;28;20025;-74
2022/09/19 05:54:58;;;;;;;5.78;0.80;;;10.90;99.90;;;;;;5031040;28;20095;-74
2022/09/19 05:57:25;;;;;;;3.63;0.45;;;11.00;99.90;;;;;;5030744;28;20033;-74
2022/09/19 05:59:50;;;;;;;3.10;0.93;;;11.20;99.90;;;;;;5031365;28;20057;-74
2022/09/19 06:02:18;;;;;;;7.93;0.80;;;11.20;99.90;;;;;;5034399;28;20056;-74
2022/09/19 06:04:45;;;;;;;10.07;0.88;;;11.20;99.90;;;;;;5035477;28;20025;-74
2022/09/19 06:07:11;;;;;;;2.17;0.32;;;11.30;99.90;;;;;;5035039;28;20021;-74
2022/09/19 06:09:37;;;;;;;6.63;0.82;;;11.20;99.90;;;;;;5035208;28;20028;-74
2022/09/19 06:12:03;;;;;;;5.00;0.60;;;11.20;99.90;;;;;;5034691;28;20025;-74
2022/09/19 06:14:28;;;;;;;5.00;1.00;;;11.20;99.90;;;;;;5034686;28;20032;-74
2022/09/19 06:16:54;;;;;;;7.57;0.73;;;11.20;99.90;;;;;;5034682;28;20079;-74
2022/09/19 06:19:20;;;;;;;5.68;0.55;;;11.30;99.90;;;;;;5034628;28;20045;-74
2022/09/19 06:21:45;;;;;;;5.03;0.65;;;11.40;99.90;;;;;;5032967;28;20052;-74
2022/09/19 06:24:11;;;;;;;4.00;0.93;;;11.40;99.90;;;;;;5034641;28;20022;-74
2022/09/19 06:26:37;;;;;;;3.72;0.77;;;11.50;99.90;;;;;;5034341;28;20036;-74
2022/09/19 06:29:03;;;;;;;5.57;1.00;;;11.70;99.90;;;;;;5033795;28;20033;-74
2022/09/19 06:31:29;;;;;;;5.97;0.65;;;11.70;99.90;;;;;;5034541;28;20456;-74
2022/09/19 06:33:55;;;;;;;9.65;1.15;;;11.80;99.90;;;;;;5034168;28;20022;-74
2022/09/19 06:36:20;;;;;;;5.20;0.63;;;11.90;99.90;;;;;;5033427;28;20461;-74
2022/09/19 06:38:46;;;;;;;3.05;0.85;;;12.10;99.80;;;;;;5033929;28;20640;-74
2022/09/19 06:41:13;;;;;;;7.35;1.52;;;12.20;95.70;;;;;;5034159;28;20395;-74
2022/09/19 06:43:39;;;;;;;10.00;0.80;;;12.40;94.80;;;;;;5034081;28;20450;-74
2022/09/19 06:46:04;;;;;;;7.65;0.88;;;12.40;95.50;;;;;;5041235;28;20026;-74
2022/09/19 06:48:30;;;;;;;3.88;0.63;;;12.60;94.30;;;;;;5034187;28;20079;-74
2022/09/19 06:50:56;;;;;;;3.40;0.45;;;12.70;92.50;;;;;;5033786;28;20030;-74
2022/09/19 06:53:22;;;;;;;7.57;1.13;;;12.80;91.90;;;;;;5034034;28;20025;-74
2022/09/19 06:55:48;;;;;;;3.85;0.57;;;13.00;87.50;;;;;;5034090;28;20025;-73
2022/09/19 06:58:15;;;;;;;5.25;0.82;;;13.20;78.30;;;;;;5033696;28;20040;-74
2022/09/19 07:00:44;;;;;;;5.40;0.95;;;16.40;31.80;;;;;;5034697;28;20024;-74
2022/09/19 07:03:15;;;;;;;7.45;0.75;;;21.20;1.00;;;;;;5053718;28;20024;-74
2022/09/19 07:05:42;;;;;;;5.80;0.70;;;24.30;1.00;;;;;;5053767;28;20385;-74
2022/09/19 07:08:10;;;;;;;11.32;1.15;;;25.50;1.00;;;;;;5053823;28;20032;-74
2022/09/19 07:10:36;;;;;;;6.07;1.20;;;27.00;1.00;;;;;;5051454;28;20637;-74
2022/09/19 07:13:04;;;;;;;9.32;0.80;;;28.30;1.00;;;;;;5032914;28;20017;-74
2022/09/19 07:15:32;;;;;;;5.70;0.60;;;28.90;1.00;;;;;;5033783;28;20018;-74
2022/09/19 07:17:57;;;;;;;10.15;1.52;;;29.80;1.00;;;;;;5033554;28;20040;-74
2022/09/19 07:20:24;;;;;;;5.82;0.65;;;30.60;1.00;;;;;;5033852;28;20014;-74
2022/09/19 07:23:05;;;;;;;5.85;0.60;;;31.30;1.00;;;;;;5033387;28;20028;-74
2022/09/19 07:25:33;;;;;;;3.88;0.50;;;32.00;1.00;;;;;;5033629;28;20013;-74
2022/09/19 07:28:04;;;;;;;6.00;0.93;;;31.60;1.00;;;;;;5033734;28;20104;-74
2022/09/19 07:30:31;;;;;;;4.85;0.65;;;32.80;1.00;;;;;;5033550;28;20033;-74
2022/09/19 07:32:58;;;;;;;5.72;0.73;;;33.00;1.00;;;;;;5033588;28;20036;-75
2022/09/19 07:35:28;;;;;;;7.25;0.80;;;32.30;1.00;;;;;;5032946;28;20091;-74
2022/09/19 07:37:55;;;;;;;;;;;33.20;1.00;;;;;;5033787;28;20032;-74
2022/09/19 07:40:21;;;;;;;4.78;0.68;;;34.10;1.00;;;;;;5033365;28;19975;-74
2022/09/19 07:42:47;;;;;;;4.57;0.98;;;34.00;1.00;;;;;;5032814;28;20049;-74
2022/09/19 07:45:13;;;;;;;4.70;0.80;;;33.60;1.00;;;;;;5033048;28;20473;-74
2022/09/19 07:47:46;;;;;;;3.30;0.80;;;35.50;1.00;;;;;;5033098;28;20611;-74
2022/09/19 07:50:16;;;;;;;3.08;0.70;;;35.20;1.00;;;;;;5033050;28;20025;-74
2022/09/19 07:52:43;;;;;;;3.75;1.20;;;34.20;1.00;;;;;;5032898;28;20036;-74
2022/09/19 07:55:12;;;;;;;2.85;0.60;;;35.30;1.00;;;;;;5032541;28;20010;-74
2022/09/19 07:57:38;;;;;;;6.35;0.88;;;35.50;1.00;;;;;;5032791;28;20120;-74
2022/09/19 08:00:04;;;;;;;7.55;0.70;;;36.90;1.00;;;;;;5032759;28;20101;-74
2022/09/19 08:02:30;;;;;;;4.78;0.88;;;35.00;1.00;;;;;;5032628;28;20083;-75
2022/09/19 08:04:55;;;;;;;4.47;0.70;;;34.40;1.00;;;;;;5032525;28;20029;-74
2022/09/19 08:07:21;;;;;;;5.38;0.73;;;33.60;1.00;;;;;;5032575;28;20052;-75
2022/09/19 08:09:47;;;;;;;6.55;1.23;;;35.00;1.00;;;;;;5032661;28;20036;-75
2022/09/19 08:12:13;;;;;;;4.00;0.55;;;34.40;1.00;;;;;;5032783;28;20037;-76
2022/09/19 08:14:39;;;;;;;3.92;0.73;;;32.40;1.00;;;;;;5032349;28;20025;-75
2022/09/19 08:17:05;;;;;;;4.65;0.85;;;29.10;1.00;;;;;;5029552;28;20032;-75
2022/09/19 08:19:31;;;;;;;6.78;0.77;;;28.70;1.00;;;;;;5012872;28;20010;-75
2022/09/19 08:21:58;;;;;;;3.92;0.50;;;32.10;1.00;;;;;;5012776;28;20022;-76
2022/09/19 08:24:24;;;;;;;2.95;0.70;;;32.00;1.00;;;;;;5012465;28;20072;-75
2022/09/19 08:26:50;;;;;;;4.95;0.77;;;32.00;1.00;;;;;;5012691;28;20068;-75
2022/09/19 08:29:15;;;;;;;3.65;0.60;;;31.30;1.00;;;;;;5011113;28;20025;-74
2022/09/19 08:31:41;;;;;;;5.75;0.88;;;32.20;1.00;;;;;;5015055;28;20028;-75
2022/09/19 08:34:08;;;;;;;8.02;1.25;;;32.10;1.00;;;;;;5031560;28;20025;-75
2022/09/19 08:36:34;;;;;;;2.33;0.70;;;30.90;1.00;;;;;;5032108;28;20041;-74
2022/09/19 08:39:00;;;;;;;3.97;1.08;;;31.90;1.00;;;;;;5032136;28;20025;-74
2022/09/19 08:42:04;;;;;;;5.63;1.00;;;31.70;1.00;;;;;;5030928;28;20033;-75
2022/09/19 08:44:35;;;;;;;5.45;0.50;;;31.70;1.00;;;;;;5032440;28;20492;-75
2022/09/19 08:47:18;;;;;;;3.63;0.80;;;30.30;1.00;;;;;;5029994;28;20025;-75
2022/09/19 08:49:53;;;;;;;3.95;0.93;;;30.90;1.00;;;;;;5030391;28;20026;-75
2022/09/19 08:52:36;;;;;;;2.90;1.05;;;32.60;1.00;;;;;;5031779;28;20032;-75
2022/09/19 08:55:05;;;;;;;6.35;1.52;;;27.70;1.00;;;;;;5030073;28;20425;-75
2022/09/19 08:57:42;;;;;;;5.68;1.33;;;27.40;1.00;;;;;;5031466;28;20030;-74
2022/09/19 09:00:15;;;;;;;5.95;0.95;;;29.80;1.00;;;;;;5031734;28;20017;-75
2022/09/19 09:02:53;;;;;;;6.35;0.60;;;30.70;1.00;;;;;;5028076;28;20049;-75
2022/09/19 09:05:56;;;;;;;6.50;1.00;;;26.00;1.00;;;;;;5014291;28;20075;-75
2022/09/19 09:08:51;;;;;;;4.00;0.90;;;24.70;1.00;;;;;;5014511;28;20037;-75
2022/09/19 09:11:56;;;;;;;6.78;0.93;;;23.30;1.00;;;;;;5015389;28;20045;-74
2022/09/19 09:14:35;;;;;;;6.00;1.10;;;22.20;1.00;;;;;;5012297;28;20056;-75
2022/09/19 09:17:37;;;;;;;2.63;0.47;;;25.80;1.00;;;;;;5011701;28;20034;-75
2022/09/19 09:20:28;;;;;;;5.00;0.80;;;27.40;1.00;;;;;;5025348;28;20030;-75
2022/09/19 09:23:02;;;;;;;6.90;1.00;;;24.80;1.00;;;;;;5031697;28;20345;-75
2022/09/19 09:25:31;;;;;;;5.97;0.98;;;22.60;1.00;;;;;;5031088;28;20030;-75
2022/09/19 09:28:27;;;;;;;8.50;1.30;;;21.50;1.00;;;;;;5031559;28;20486;-75
2022/09/19 09:31:07;;;;;;;3.80;0.55;;;21.00;1.00;;;;;;5031613;28;20046;-75
2022/09/19 09:33:37;;;;;;;5.28;0.80;;;20.00;1.00;;;;;;5022641;28;20024;-75
2022/09/19 09:36:15;;;;;;;3.95;0.55;;;24.90;1.00;;;;;;5012662;28;20141;-74
2022/09/19 09:39:08;;;;;;;4.05;0.50;;;24.40;1.00;;;;;;5015624;28;20057;-75
2022/09/19 09:41:50;;;;;;;9.07;1.27;;;22.10;1.00;;;;;;5015738;28;20030;-74
2022/09/19 09:44:44;;;;;;;10.40;2.08;;;22.00;1.00;;;;;;5015219;28;20101;-75
2022/09/19 09:47:20;;;;;;;8.73;1.20;;;23.40;1.00;;;;;;5016028;28;20041;-74
2022/09/19 09:49:46;;;;;;;6.75;1.52;;;26.10;1.00;;;;;;5015672;28;20471;-75
2022/09/19 09:52:27;;;;;;;9.57;1.27;;;24.50;1.00;;;;;;5032836;28;20013;-75
2022/09/19 09:58:23;;;;;;;8.27;1.20;;;26.80;1.00;;;;;;5040408;28;20035;-75
2022/09/19 10:04:04;;;;;;;6.07;0.82;;;22.90;1.00;;;;;;5029831;28;20084;-75
2022/09/19 10:06:42;;;;;;;8.45;1.48;;;19.50;1.00;;;;;;5015212;28;20030;-75
2022/09/19 10:09:33;;;;;;;8.52;1.27;;;19.10;1.00;;;;;;5015140;28;20028;-75
2022/09/19 10:12:06;;;;;;;7.13;1.10;;;19.70;1.00;;;;;;5017036;28;20056;-75
2022/09/19 10:14:35;;;;;;;8.13;0.90;;;19.60;1.00;;;;;;5035131;28;20096;-75
2022/09/19 10:17:04;;;;;;;6.55;0.90;;;22.20;1.00;;;;;;5034673;28;20018;-74
2022/09/19 10:19:41;;;;;;;6.57;1.10;;;21.40;1.00;;;;;;5033061;28;20029;-75
2022/09/19 10:22:15;;;;;;;7.03;0.75;;;19.60;1.00;;;;;;5032609;28;20033;-75
2022/09/19 10:24:52;;;;;;;5.90;0.82;;;22.00;1.00;;;;;;5034452;28;20033;-75
2022/09/19 10:27:31;;;;;;;2.97;0.63;;;23.70;1.00;;;;;;5034495;28;20112;-75
2022/09/19 10:30:02;;;;;;;6.50;0.82;;;23.80;1.00;;;;;;5034515;28;20060;-75
2022/09/19 10:32:34;;;;;;;5.10;0.73;;;22.80;1.00;;;;;;5034228;28;20021;-75
2022/09/19 10:35:12;;;;;;;3.78;0.80;;;22.70;1.00;;;;;;5034527;28;20022;-75
2022/09/19 10:37:38;;;;;;;6.15;0.68;;;22.10;1.00;;;;;;5034365;28;20116;-75
2022/09/19 10:40:05;;;;;;;4.28;0.73;;;21.00;1.00;;;;;;5034082;28;20017;-75
2022/09/19 10:42:34;;;;;;;6.47;1.35;;;20.10;1.00;;;;;;5033823;28;20021;-76
2022/09/19 10:45:24;;;;;;;3.00;0.52;;;20.10;1.00;;;;;;5034087;28;20523;-76
2022/09/19 10:48:02;;;;;;;4.22;0.77;;;19.90;1.00;;;;;;5034035;28;20656;-76
2022/09/19 10:50:29;;;;;;;5.95;0.70;;;19.30;1.00;;;;;;5034047;28;20104;-75
2022/09/19 10:53:06;;;;;;;4.47;0.98;;;18.90;1.00;;;;;;5032776;28;20600;-75
2022/09/19 10:55:36;;;;;;;5.78;0.85;;;19.00;1.00;;;;;;5033747;28;20103;-75
2022/09/19 10:58:22;;;;;;;4.30;0.60;;;19.10;1.00;;;;;;5033659;28;20029;-76
2022/09/19 11:00:57;;;;;;;5.68;0.88;;;19.40;1.00;;;;;;5034012;28;20452;-75
2022/09/19 11:03:35;;;;;;;4.18;0.80;;;19.70;1.00;;;;;;5033741;28;20029;-75
2022/09/19 11:06:10;;;;;;;4.38;0.70;;;19.70;1.00;;;;;;5026760;28;20025;-75
2022/09/19 11:08:43;;;;;;;6.82;0.43;;;19.20;1.00;;;;;;5034025;28;20033;-75
2022/09/19 11:11:37;;;;;;;4.50;0.57;;;19.50;1.00;;;;;;5033724;28;20108;-75
2022/09/19 11:14:07;;;;;;;3.83;1.63;;;19.80;1.00;;;;;;5033512;28;20367;-75
2022/09/19 11:17:05;;;;;;;2.60;0.57;;;19.40;1.00;;;;;;5033565;28;20060;-75
2022/09/19 11:20:02;;;;;;;4.65;0.80;;;19.30;1.00;;;;;;5040752;28;20037;-75
2022/09/19 11:22:50;;;;;;;5.40;0.80;;;19.20;1.00;;;;;;5033426;28;20080;-75
2022/09/19 11:25:21;;;;;;;2.67;0.60;;;19.40;1.00;;;;;;5026396;28;20515;-76
2022/09/19 11:28:00;;;;;;;6.93;1.45;;;19.40;1.00;;;;;;5014301;28;20048;-76
2022/09/19 11:30:27;;;;;;;5.28;0.85;;;19.40;1.00;;;;;;5013589;28;20022;-75
2022/09/19 11:33:15;;;;;;;6.28;1.10;;;19.50;1.00;;;;;;5013469;28;20022;-76
2022/09/19 11:35:53;;;;;;;4.80;0.65;;;19.10;1.00;;;;;;5013326;28;20104;-75
2022/09/19 11:38:41;;;;;;;4.53;0.60;;;18.50;1.00;;;;;;5013375;28;20026;-76
2022/09/19 11:41:37;;;;;;;5.60;0.98;;;18.20;1.00;;;;;;5013536;28;20034;-75
2022/09/19 11:44:24;;;;;;;4.30;0.75;;;18.40;1.00;;;;;;5013346;28;20037;-75
2022/09/19 11:47:02;;;;;;;3.53;0.95;;;19.10;1.00;;;;;;5013136;28;20042;-75
2022/09/19 11:49:47;;;;;;;7.53;1.15;;;19.30;1.00;;;;;;5013414;28;20440;-76
2022/09/19 11:52:36;;;;;;;6.38;1.00;;;18.70;1.00;;;;;;5013053;28;20812;-76
2022/09/19 11:55:41;;;;;;;9.10;1.05;;;18.50;1.00;;;;;;5013130;28;20025;-76
2022/09/19 11:58:18;;;;;;;3.90;0.75;;;18.70;1.00;;;;;;5013086;28;20089;-75
2022/09/19 12:01:07;;;;;;;5.78;0.95;;;18.40;1.00;;;;;;5013274;28;20044;-76
2022/09/19 12:04:09;;;;;;;3.70;0.90;;;18.30;1.00;;;;;;5012964;28;20114;-76
2022/09/19 12:06:58;;;;;;;4.55;0.60;;;18.00;1.00;;;;;;5012850;28;20025;-75
2022/09/19 12:09:30;;;;;;;6.75;0.75;;;17.80;1.00;;;;;;5012140;28;20041;-76
2022/09/19 12:12:06;;;;;;;9.23;1.20;;;17.20;1.00;;;;;;5016407;28;20026;-75
2022/09/19 12:14:42;;;;;;;9.25;1.33;;;16.90;1.00;;;;;;5022448;28;20065;-75
2022/09/19 12:17:24;;;;;;;7.60;0.82;;;17.20;1.00;;;;;;5012144;28;20029;-76
2022/09/19 12:20:23;;;;;;;1.10;0.15;;;17.40;1.00;;;;;;5012396;28;20022;-75
2022/09/19 12:22:57;;;;;;;4.60;0.73;;;17.50;1.00;;;;;;5031294;28;20064;-76
2022/09/19 12:25:28;;;;;;;4.32;0.50;;;17.50;1.00;;;;;;5031922;28;20037;-76
2022/09/19 12:28:15;;;;;;;1.63;0.50;;;17.20;1.00;;;;;;5032182;28;20029;-76
2022/09/19 12:30:45;;;;;;;8.65;0.93;;;16.90;1.00;;;;;;5032399;28;20018;-76
2022/09/19 12:33:28;;;;;;;1.80;0.22;;;17.10;1.00;;;;;;5032466;28;20460;-76
2022/09/19 12:36:02;;;;;;;4.43;1.13;;;17.20;1.00;;;;;;5031972;28;20060;-76
2022/09/19 12:38:53;;;;;;;7.13;1.00;;;17.00;1.00;;;;;;5024185;28;20107;-75
2022/09/19 12:41:18;;;;;;;5.65;0.82;;;17.00;1.00;;;;;;5012438;28;20057;-76
2022/09/19 12:43:46;;;;;;;8.70;0.93;;;17.10;1.00;;;;;;5012276;28;20022;-75
2022/09/19 12:46:36;;;;;;;11.98;1.52;;;17.30;1.00;;;;;;5012250;28;20057;-76
2022/09/19 12:49:16;;;;;;;6.05;0.90;;;17.50;1.00;;;;;;5012580;28;20025;-76
2022/09/19 12:51:55;;;;;;;3.92;1.00;;;17.00;1.00;;;;;;5012200;28;20034;-76
2022/09/19 12:54:39;;;;;;;2.72;0.50;;;16.90;1.00;;;;;;5012619;28;20025;-76
2022/09/19 12:57:05;;;;;;;9.15;1.38;;;17.00;1.00;;;;;;5012307;28;20037;-76
2022/09/19 12:59:33;;;;;;;5.57;0.68;;;17.50;1.00;;;;;;5012476;28;20018;-76
2022/09/19 13:02:23;;;;;;;6.13;0.77;;;17.40;1.00;;;;;;5012352;28;20029;-76
2022/09/19 13:05:07;;;;;;;4.63;1.08;;;17.30;1.00;;;;;;5012468;28;20030;-76
2022/09/19 13:07:46;;;;;;;6.25;1.05;;;17.10;1.00;;;;;;5020490;28;20024;-76
2022/09/19 13:10:24;;;;;;;3.40;0.50;;;16.90;1.00;;;;;;5051254;28;20100;-76
2022/09/19 13:13:00;;;;;;;2.03;0.80;;;16.70;1.00;;;;;;5012567;28;20026;-76
2022/09/19 13:15:40;;;;;;;6.20;0.68;;;16.90;1.00;;;;;;5012585;28;20033;-76
2022/09/19 13:23:45;;;;;;;3.92;0.57;;;16.90;1.00;;;;;;5033229;28;20100;-77
2022/09/19 13:26:19;;;;;;;3.78;0.82;;;16.90;1.00;;;;;;5032595;28;20021;-77
2022/09/19 13:28:50;;;;;;;4.50;0.68;;;16.90;1.00;;;;;;5033020;28;20022;-77
2022/09/19 13:31:17;;;;;;;2.10;0.30;;;16.90;1.00;;;;;;5031836;28;20380;-77
2022/09/19 13:33:49;;;;;;;4.10;0.63;;;16.90;1.00;;;;;;5032495;28;20022;-76
2022/09/19 13:36:36;;;;;;;3.55;0.40;;;17.00;1.00;;;;;;5031530;28;20050;-76
2022/09/19 13:39:04;;;;;;;4.03;0.50;;;16.90;1.00;;;;;;5031504;28;20033;-77
2022/09/19 13:41:41;;;;;;;1.33;0.57;;;16.70;1.00;;;;;;5032114;28;20018;-76